Time;durP1;ratioP1;P1;durP2;ratioP2;P2;SDS_P1;SDS_P2;PMS_P1;PMS_P2;Temp;Humidity;BMP_temperature;BMP_pressure;BME280_temperature;BME280_humidity;BME280_pressure;Samples;Min_cycle;Max_cycle;Signal;HPM_P1;HPM_P2
2024/03/06 00:00:24;;;;;;;149.77;60.13;;;6.60;99.90;;;;;;4978156;28;20065;-72
2024/03/06 00:02:51;;;;;;;141.63;59.92;;;6.60;99.90;;;;;;4956367;28;20145;-73
2024/03/06 00:05:18;;;;;;;146.05;57.88;;;6.60;99.90;;;;;;4972117;28;20058;-72
2024/03/06 00:07:45;;;;;;;141.20;59.08;;;6.40;99.90;;;;;;4968538;28;20606;-73
2024/03/06 00:10:12;;;;;;;139.02;55.30;;;6.50;99.90;;;;;;4971628;28;20511;-73
2024/03/06 00:12:40;;;;;;;138.18;58.42;;;6.50;99.90;;;;;;4971535;28;20494;-74
2024/03/06 00:15:07;;;;;;;145.05;59.35;;;6.50;99.90;;;;;;4977646;28;20046;-72
2024/03/06 00:17:34;;;;;;;151.90;59.15;;;6.60;99.90;;;;;;4957358;28;20117;-73
2024/03/06 00:20:05;;;;;;;112.60;50.38;;;6.60;99.90;;;;;;4975269;28;20070;-74
2024/03/06 00:22:32;;;;;;;113.07;49.17;;;6.50;99.90;;;;;;4970470;28;20084;-70
2024/03/06 00:24:59;;;;;;;98.85;46.88;;;6.40;99.90;;;;;;4962311;28;20058;-72
2024/03/06 00:27:26;;;;;;;100.68;46.78;;;6.30;99.90;;;;;;4987947;28;20066;-72
2024/03/06 00:29:53;;;;;;;98.68;47.08;;;6.30;99.90;;;;;;4967208;28;20073;-73
2024/03/06 00:32:23;;;;;;;81.00;40.67;;;6.40;99.90;;;;;;4977567;28;20553;-72
2024/03/06 00:34:50;;;;;;;93.60;41.90;;;6.30;99.90;;;;;;4950914;28;20050;-73
2024/03/06 00:37:17;;;;;;;101.43;49.10;;;6.30;99.90;;;;;;4971643;28;20058;-73
2024/03/06 00:39:44;;;;;;;93.93;44.53;;;6.30;99.90;;;;;;4978342;28;20082;-73
2024/03/06 00:42:13;;;;;;;104.78;46.70;;;6.30;99.90;;;;;;4965126;28;20142;-73
2024/03/06 00:44:41;;;;;;;107.70;48.00;;;6.30;99.90;;;;;;4971442;28;20050;-73
2024/03/06 00:47:08;;;;;;;100.97;47.60;;;6.20;99.90;;;;;;4952157;28;20041;-71
2024/03/06 00:49:35;;;;;;;106.22;47.45;;;6.20;99.90;;;;;;4963494;28;20070;-71
2024/03/06 00:52:04;;;;;;;92.30;44.25;;;6.20;99.90;;;;;;4975366;28;20043;-71
2024/03/06 00:54:31;;;;;;;100.72;45.60;;;6.20;99.90;;;;;;4966150;28;20057;-73
2024/03/06 00:56:59;;;;;;;107.43;47.65;;;6.20;99.90;;;;;;4972156;28;20098;-71
2024/03/06 00:59:26;;;;;;;110.53;48.90;;;6.10;99.90;;;;;;4963364;28;20053;-73
2024/03/06 01:01:56;;;;;;;112.72;49.65;;;6.10;99.90;;;;;;4964622;28;20296;-72
2024/03/06 01:04:23;;;;;;;116.93;51.85;;;6.10;99.90;;;;;;4967614;28;20094;-73
2024/03/06 01:06:51;;;;;;;114.65;50.50;;;6.10;99.90;;;;;;4949024;28;20041;-73
2024/03/06 01:09:19;;;;;;;115.68;49.85;;;6.20;99.90;;;;;;4977937;28;20046;-73
2024/03/06 01:11:47;;;;;;;118.70;50.85;;;6.20;99.90;;;;;;4963821;28;20062;-73
2024/03/06 01:14:14;;;;;;;115.07;51.30;;;6.20;99.90;;;;;;4955453;28;20097;-72
2024/03/06 01:16:41;;;;;;;123.65;51.10;;;6.10;99.90;;;;;;4961620;28;20046;-73
2024/03/06 01:19:08;;;;;;;110.00;47.72;;;6.10;99.90;;;;;;4954095;28;20133;-72
2024/03/06 01:21:36;;;;;;;133.75;52.55;;;6.20;99.90;;;;;;4968813;28;20042;-71
2024/03/06 01:24:03;;;;;;;127.70;53.78;;;6.20;99.90;;;;;;4988835;28;20077;-73
2024/03/06 01:26:30;;;;;;;134.00;56.40;;;6.20;99.90;;;;;;4962460;28;20042;-73
2024/03/06 01:28:57;;;;;;;134.45;56.35;;;6.20;99.90;;;;;;4972050;28;20155;-71
2024/03/06 01:31:24;;;;;;;137.30;57.22;;;6.10;99.90;;;;;;4960455;28;20173;-73
2024/03/06 01:33:51;;;;;;;141.45;56.72;;;6.20;99.90;;;;;;4967146;28;20047;-71
2024/03/06 01:36:18;;;;;;;139.07;55.95;;;6.20;99.90;;;;;;4970426;28;20054;-72
2024/03/06 01:38:46;;;;;;;135.35;56.25;;;6.10;99.90;;;;;;4965665;28;20058;-72
2024/03/06 01:41:14;;;;;;;151.50;59.33;;;6.10;99.90;;;;;;4973246;28;20474;-72
2024/03/06 01:43:42;;;;;;;160.32;59.33;;;6.00;99.90;;;;;;4964845;28;20492;-72
2024/03/06 01:46:09;;;;;;;156.80;59.15;;;5.90;99.90;;;;;;4976869;28;20676;-73
2024/03/06 01:48:36;;;;;;;142.02;59.20;;;6.00;99.90;;;;;;4972047;28;20046;-73
2024/03/06 01:51:06;;;;;;;157.63;59.70;;;6.00;99.90;;;;;;4950848;28;20141;-72
2024/03/06 01:53:34;;;;;;;149.80;57.97;;;6.10;99.90;;;;;;4969051;28;20074;-72
2024/03/06 01:56:03;;;;;;;145.27;59.95;;;6.10;99.90;;;;;;4970267;28;20057;-73
2024/03/06 01:58:33;;;;;;;149.68;62.10;;;6.20;99.90;;;;;;4977690;28;20212;-71
2024/03/06 02:01:02;;;;;;;163.48;59.65;;;6.20;99.90;;;;;;4967717;28;20047;-72
2024/03/06 02:03:31;;;;;;;145.55;59.35;;;6.30;99.90;;;;;;4969201;28;20046;-71
2024/03/06 02:06:02;;;;;;;153.35;60.80;;;6.20;99.90;;;;;;4964142;28;20113;-72
2024/03/06 02:08:29;;;;;;;154.57;59.45;;;6.30;99.90;;;;;;4972291;28;20734;-71
2024/03/06 02:10:56;;;;;;;159.52;61.30;;;6.30;99.90;;;;;;4966872;28;20415;-71
2024/03/06 02:13:23;;;;;;;152.18;61.08;;;6.20;99.90;;;;;;4964163;28;20046;-72
2024/03/06 02:15:50;;;;;;;156.98;61.30;;;6.10;99.90;;;;;;4972237;28;20038;-72
2024/03/06 02:18:17;;;;;;;166.35;58.88;;;6.20;99.90;;;;;;4971264;28;20096;-72
2024/03/06 02:20:45;;;;;;;163.77;60.50;;;6.20;99.90;;;;;;4962466;28;20101;-72
2024/03/06 02:23:14;;;;;;;178.18;62.25;;;6.30;99.90;;;;;;4967892;28;20043;-72
2024/03/06 02:25:41;;;;;;;189.68;61.25;;;6.40;99.90;;;;;;4970496;28;20043;-70
2024/03/06 02:28:09;;;;;;;158.43;61.35;;;6.40;99.90;;;;;;4953312;28;20030;-72
2024/03/06 02:30:36;;;;;;;149.63;62.70;;;6.40;99.90;;;;;;4965047;28;20039;-73
2024/03/06 02:33:06;;;;;;;152.52;59.65;;;6.40;99.90;;;;;;4967462;28;20158;-71
2024/03/06 02:35:35;;;;;;;164.40;64.05;;;6.30;99.90;;;;;;4965674;28;20046;-71
2024/03/06 02:38:04;;;;;;;164.82;62.83;;;6.30;99.90;;;;;;4972453;28;20552;-72
2024/03/06 02:40:32;;;;;;;151.23;60.88;;;6.30;99.90;;;;;;4968106;28;20696;-72
2024/03/06 02:42:59;;;;;;;150.52;61.78;;;6.30;99.90;;;;;;4952995;28;20078;-72
2024/03/06 02:45:26;;;;;;;166.02;63.63;;;6.30;99.90;;;;;;4973804;28;20086;-72
2024/03/06 02:47:54;;;;;;;167.73;63.08;;;6.20;99.90;;;;;;4953461;28;20042;-72
2024/03/06 02:50:23;;;;;;;169.95;65.78;;;6.20;99.90;;;;;;4956697;28;20050;-72
2024/03/06 02:52:51;;;;;;;179.57;65.40;;;6.30;99.90;;;;;;4968681;28;20708;-71
2024/03/06 02:55:19;;;;;;;163.05;63.50;;;6.30;99.90;;;;;;4967101;28;20108;-71
2024/03/06 02:57:46;;;;;;;155.15;62.17;;;6.30;99.90;;;;;;4971312;28;20052;-71
2024/03/06 03:00:15;;;;;;;149.45;61.70;;;6.30;99.90;;;;;;4971673;28;20065;-72
2024/03/06 03:02:43;;;;;;;165.20;61.70;;;6.30;99.90;;;;;;4970915;28;20049;-72
2024/03/06 03:05:10;;;;;;;158.65;60.97;;;6.30;99.90;;;;;;4963462;28;20750;-72
2024/03/06 03:07:38;;;;;;;157.32;59.83;;;6.20;99.90;;;;;;4971544;28;20048;-72
2024/03/06 03:10:06;;;;;;;158.57;62.67;;;6.20;99.90;;;;;;4974753;28;21976;-71
2024/03/06 03:12:33;;;;;;;165.35;64.97;;;6.30;99.90;;;;;;4951941;28;20208;-72
2024/03/06 03:15:01;;;;;;;161.75;60.85;;;6.30;99.90;;;;;;4969744;28;20221;-72
2024/03/06 03:17:28;;;;;;;151.93;59.72;;;6.30;99.90;;;;;;4969609;28;20053;-70
2024/03/06 03:19:55;;;;;;;143.25;59.15;;;6.30;99.90;;;;;;4950937;28;20057;-72
2024/03/06 03:22:22;;;;;;;158.48;61.25;;;6.30;99.90;;;;;;4968357;28;20129;-72
2024/03/06 03:24:49;;;;;;;162.52;60.80;;;6.30;99.90;;;;;;4968891;28;20047;-72
2024/03/06 03:27:16;;;;;;;142.50;60.38;;;6.20;99.90;;;;;;4985466;28;20046;-72
2024/03/06 03:29:43;;;;;;;163.55;59.95;;;6.10;99.90;;;;;;4963867;28;20133;-72
2024/03/06 03:32:10;;;;;;;171.93;66.97;;;6.10;99.90;;;;;;4969134;28;20701;-70
2024/03/06 03:34:38;;;;;;;154.25;62.00;;;6.00;99.90;;;;;;4969084;28;20046;-72
2024/03/06 03:37:06;;;;;;;153.73;60.20;;;6.00;99.90;;;;;;4967678;28;20039;-72
2024/03/06 03:39:33;;;;;;;163.82;65.05;;;6.00;99.90;;;;;;4969406;28;20054;-72
2024/03/06 03:42:00;;;;;;;164.35;64.53;;;6.10;99.90;;;;;;4973237;28;20128;-72
2024/03/06 03:44:28;;;;;;;202.73;69.60;;;6.20;99.90;;;;;;4976484;28;20078;-73
2024/03/06 03:46:55;;;;;;;192.25;69.78;;;6.20;99.90;;;;;;4967436;28;20089;-71
2024/03/06 03:49:22;;;;;;;173.73;69.05;;;6.30;99.90;;;;;;4973483;28;20529;-71
2024/03/06 03:51:49;;;;;;;169.77;68.72;;;6.20;99.90;;;;;;4974628;28;20737;-69
2024/03/06 03:54:16;;;;;;;191.68;70.57;;;6.00;99.90;;;;;;4972365;28;20742;-71
2024/03/06 03:56:43;;;;;;;196.35;69.65;;;6.00;99.90;;;;;;4970622;28;20081;-70
2024/03/06 03:59:10;;;;;;;171.93;69.43;;;5.80;99.90;;;;;;4972893;28;20050;-72
2024/03/06 04:01:38;;;;;;;217.57;73.57;;;5.80;99.90;;;;;;4957420;28;20061;-73
2024/03/06 04:04:06;;;;;;;195.10;73.55;;;5.80;99.90;;;;;;4973015;28;20052;-72
2024/03/06 04:06:34;;;;;;;189.43;71.95;;;5.80;99.90;;;;;;4967803;28;20586;-71
2024/03/06 04:09:01;;;;;;;205.68;75.82;;;5.90;99.90;;;;;;4973174;28;20050;-73
2024/03/06 04:11:29;;;;;;;190.55;75.25;;;5.90;99.90;;;;;;4965852;28;20066;-71
2024/03/06 04:13:57;;;;;;;186.75;73.50;;;5.90;99.90;;;;;;4969079;28;20522;-71
2024/03/06 04:16:23;;;;;;;188.65;69.80;;;5.90;99.90;;;;;;4967375;28;20042;-72
2024/03/06 04:18:51;;;;;;;187.00;70.78;;;6.10;99.90;;;;;;4967568;28;20132;-69
2024/03/06 04:21:18;;;;;;;194.20;71.97;;;6.10;99.90;;;;;;4971485;28;20049;-71
2024/03/06 04:23:45;;;;;;;193.88;72.82;;;6.10;99.90;;;;;;4974940;28;20050;-73
2024/03/06 04:26:13;;;;;;;196.88;73.85;;;6.10;99.90;;;;;;4968911;28;21304;-71
2024/03/06 04:28:40;;;;;;;191.98;71.32;;;6.00;99.90;;;;;;4952415;28;20045;-72
2024/03/06 04:31:08;;;;;;;207.95;75.80;;;5.90;99.90;;;;;;4965524;28;20122;-72
2024/03/06 04:33:35;;;;;;;194.60;73.65;;;5.80;99.90;;;;;;4964076;28;20804;-72
2024/03/06 04:36:04;;;;;;;216.20;76.45;;;5.90;99.90;;;;;;4968084;28;20097;-72
2024/03/06 04:38:31;;;;;;;221.27;78.22;;;5.80;99.90;;;;;;4973762;28;20056;-72
2024/03/06 04:40:58;;;;;;;222.25;78.22;;;5.80;99.90;;;;;;4970355;28;20050;-71
2024/03/06 04:43:26;;;;;;;231.77;80.22;;;5.90;99.90;;;;;;4951388;28;20060;-73
2024/03/06 04:45:53;;;;;;;234.27;83.63;;;5.90;99.90;;;;;;4969011;28;20718;-70
2024/03/06 04:48:20;;;;;;;247.85;83.38;;;5.90;99.90;;;;;;4971615;28;20126;-71
2024/03/06 04:50:47;;;;;;;243.40;81.75;;;5.90;99.90;;;;;;4955998;28;20057;-72
2024/03/06 04:53:15;;;;;;;236.57;83.30;;;5.90;99.90;;;;;;4968816;28;20786;-70
2024/03/06 04:55:42;;;;;;;240.20;82.07;;;5.90;99.90;;;;;;4963999;28;20042;-72
2024/03/06 04:58:10;;;;;;;231.07;82.85;;;5.90;99.90;;;;;;4990995;28;20049;-72
2024/03/06 05:00:37;;;;;;;222.73;79.45;;;6.00;99.90;;;;;;4976058;28;20046;-71
2024/03/06 05:03:04;;;;;;;215.63;81.30;;;5.90;99.90;;;;;;4966033;28;20061;-71
2024/03/06 05:05:48;;;;;;;214.65;80.50;;;6.00;99.90;;;;;;4958904;28;20090;-73
2024/03/06 05:08:33;;;;;;;200.57;76.82;;;5.90;99.90;;;;;;4974562;28;20637;-72
2024/03/06 05:11:17;;;;;;;223.80;79.85;;;5.90;99.90;;;;;;4970585;28;20042;-72
2024/03/06 05:14:02;;;;;;;203.43;76.82;;;6.00;99.90;;;;;;4982454;28;20057;-73
2024/03/06 05:16:47;;;;;;;211.65;76.85;;;6.10;99.90;;;;;;4985008;28;20614;-72
2024/03/06 05:19:32;;;;;;;198.80;76.20;;;6.20;99.90;;;;;;4970882;28;20045;-71
2024/03/06 05:22:17;;;;;;;192.60;75.57;;;6.10;99.90;;;;;;4973430;28;20438;-69
2024/03/06 05:25:01;;;;;;;185.15;74.53;;;6.10;99.90;;;;;;4968771;28;20106;-72
2024/03/06 05:27:45;;;;;;;181.25;72.32;;;6.00;99.90;;;;;;4955247;28;20659;-71
2024/03/06 05:30:30;;;;;;;182.10;72.85;;;5.80;99.90;;;;;;4965923;28;20100;-70
2024/03/06 05:33:14;;;;;;;179.83;73.50;;;5.90;99.90;;;;;;4969214;28;20835;-72
2024/03/06 05:35:59;;;;;;;213.40;78.75;;;5.80;99.90;;;;;;4966736;28;20042;-71
2024/03/06 05:38:48;;;;;;;184.15;75.22;;;5.90;99.90;;;;;;4969220;28;20652;-73
2024/03/06 05:41:33;;;;;;;194.25;77.28;;;5.90;99.90;;;;;;4975826;28;20522;-71
2024/03/06 05:44:18;;;;;;;191.52;74.30;;;5.90;99.90;;;;;;4966790;28;20292;-69
2024/03/06 05:47:03;;;;;;;;;;;5.90;99.90;;;;;;4969438;28;20078;-71
2024/03/06 05:49:47;;;;;;;197.13;74.80;;;5.90;99.90;;;;;;4969688;28;19916;-72
2024/03/06 05:52:32;;;;;;;201.98;76.93;;;5.90;99.90;;;;;;4972216;28;20633;-71
2024/03/06 05:55:16;;;;;;;201.55;78.55;;;5.90;99.90;;;;;;4962507;28;20042;-71
2024/03/06 05:58:02;;;;;;;207.40;77.40;;;5.90;99.90;;;;;;4970822;28;20030;-73
2024/03/06 06:00:39;;;;;;;224.15;84.80;;;5.80;99.90;;;;;;4966789;28;20534;-73
2024/03/06 06:03:08;;;;;;;220.73;81.53;;;5.80;99.90;;;;;;4960377;28;20538;-72
2024/03/06 06:05:36;;;;;;;237.93;84.07;;;5.80;99.90;;;;;;4965621;28;20046;-72
2024/03/06 06:08:04;;;;;;;227.95;85.22;;;5.80;99.90;;;;;;4972536;28;20471;-72
2024/03/06 06:10:32;;;;;;;228.15;82.05;;;5.80;99.90;;;;;;4965008;28;20054;-70
2024/03/06 06:13:01;;;;;;;238.35;87.88;;;5.70;99.90;;;;;;4962027;28;20073;-72
2024/03/06 06:15:28;;;;;;;269.50;90.50;;;5.60;99.90;;;;;;4977388;28;20042;-72
2024/03/06 06:17:54;;;;;;;266.30;89.72;;;5.70;99.90;;;;;;4972118;28;20145;-70
2024/03/06 06:20:21;;;;;;;269.52;94.45;;;5.70;99.90;;;;;;4969626;28;21553;-72
2024/03/06 06:22:48;;;;;;;262.73;92.68;;;5.70;99.90;;;;;;4968736;28;20105;-70
2024/03/06 06:25:16;;;;;;;281.70;90.40;;;5.70;99.90;;;;;;4950535;28;20535;-72
2024/03/06 06:27:43;;;;;;;280.10;93.25;;;5.60;99.90;;;;;;4955477;28;20045;-72
2024/03/06 06:30:11;;;;;;;271.77;92.50;;;5.60;99.90;;;;;;4973100;28;20759;-72
2024/03/06 06:32:40;;;;;;;287.77;95.40;;;5.70;99.90;;;;;;4965849;28;20057;-71
2024/03/06 06:35:09;;;;;;;304.30;93.47;;;5.70;99.90;;;;;;4961578;28;20042;-72
2024/03/06 06:37:37;;;;;;;285.77;96.18;;;5.70;99.90;;;;;;4969388;28;20137;-72
2024/03/06 06:40:07;;;;;;;292.35;94.32;;;5.70;99.90;;;;;;4952157;28;20539;-70
2024/03/06 06:42:38;;;;;;;284.10;94.25;;;5.70;99.90;;;;;;4965190;28;20050;-71
2024/03/06 06:45:06;;;;;;;314.05;98.55;;;5.70;99.90;;;;;;4979563;28;20089;-72
2024/03/06 06:47:34;;;;;;;331.83;100.95;;;5.80;99.90;;;;;;4970207;28;20050;-70
2024/03/06 06:50:05;;;;;;;344.95;104.45;;;5.80;99.90;;;;;;4972305;28;20058;-72
2024/03/06 06:52:33;;;;;;;331.00;103.90;;;5.90;99.90;;;;;;4945786;28;20054;-70
2024/03/06 06:55:01;;;;;;;321.05;100.15;;;5.80;99.90;;;;;;4966612;28;20066;-71
2024/03/06 06:57:30;;;;;;;300.02;95.28;;;5.90;99.90;;;;;;4965942;28;20087;-71
2024/03/06 06:59:57;;;;;;;284.02;95.43;;;5.70;99.90;;;;;;4973164;28;20050;-70
2024/03/06 07:02:24;;;;;;;306.48;99.15;;;5.70;99.90;;;;;;4964652;28;20529;-72
2024/03/06 07:04:52;;;;;;;298.35;96.38;;;5.70;99.90;;;;;;4962638;28;20153;-70
2024/03/06 07:07:20;;;;;;;280.63;93.75;;;5.70;99.90;;;;;;4970665;28;20065;-70
2024/03/06 07:09:47;;;;;;;253.82;92.25;;;5.80;99.90;;;;;;4972883;28;20059;-71
2024/03/06 07:12:14;;;;;;;260.83;92.22;;;5.60;99.90;;;;;;4966335;28;20109;-70
2024/03/06 07:14:41;;;;;;;232.93;87.25;;;5.70;99.90;;;;;;4977820;28;20045;-72
2024/03/06 07:17:08;;;;;;;239.00;88.88;;;5.70;99.90;;;;;;4971653;28;20078;-71
2024/03/06 07:19:36;;;;;;;243.13;89.20;;;5.70;99.90;;;;;;4950542;28;20639;-71
2024/03/06 07:22:03;;;;;;;221.70;85.53;;;5.80;99.90;;;;;;4970297;28;20038;-72
2024/03/06 07:24:30;;;;;;;216.77;81.35;;;5.80;99.90;;;;;;4973113;28;20050;-72
2024/03/06 07:26:57;;;;;;;219.02;81.75;;;5.90;99.90;;;;;;4975083;28;20046;-70
2024/03/06 07:29:25;;;;;;;219.27;83.38;;;5.90;99.90;;;;;;4983668;28;20043;-72
2024/03/06 07:31:53;;;;;;;208.70;80.00;;;5.90;99.90;;;;;;4988604;28;20053;-72
2024/03/06 07:34:23;;;;;;;206.25;78.38;;;5.90;99.90;;;;;;4970701;28;20050;-70
2024/03/06 07:36:50;;;;;;;200.75;79.18;;;5.90;99.90;;;;;;4975234;28;20646;-72
2024/03/06 07:39:19;;;;;;;213.50;80.75;;;5.90;99.90;;;;;;4953861;28;20050;-72
2024/03/06 07:41:46;;;;;;;221.13;81.25;;;6.00;99.90;;;;;;4990525;28;20128;-73
2024/03/06 07:44:14;;;;;;;226.15;86.38;;;6.00;99.90;;;;;;4974750;28;20137;-71
2024/03/06 07:46:41;;;;;;;222.80;82.63;;;6.10;99.90;;;;;;4971467;28;20046;-71
2024/03/06 07:49:08;;;;;;;211.18;80.32;;;6.00;99.90;;;;;;4972340;28;20042;-69
2024/03/06 07:51:35;;;;;;;214.82;83.85;;;6.20;99.90;;;;;;4977548;28;20037;-71
2024/03/06 07:54:04;;;;;;;216.65;80.25;;;6.10;99.90;;;;;;4975243;28;20069;-70
2024/03/06 07:56:31;;;;;;;203.93;79.43;;;6.10;99.90;;;;;;4972241;28;20070;-71
2024/03/06 07:58:58;;;;;;;198.13;77.97;;;6.20;99.90;;;;;;4967642;28;20063;-71
2024/03/06 08:01:26;;;;;;;208.68;77.50;;;6.10;99.90;;;;;;4963214;28;20129;-70
2024/03/06 08:03:53;;;;;;;185.48;76.85;;;6.10;99.90;;;;;;4973062;28;20055;-72
2024/03/06 08:06:20;;;;;;;215.43;77.60;;;6.10;99.90;;;;;;4963986;28;20145;-70
2024/03/06 08:08:47;;;;;;;185.27;75.10;;;6.20;99.90;;;;;;4968881;28;20137;-72
2024/03/06 08:11:15;;;;;;;203.43;81.45;;;6.20;99.90;;;;;;4968691;28;20038;-71
2024/03/06 08:13:43;;;;;;;203.35;79.65;;;6.30;99.90;;;;;;4969239;28;20058;-69
2024/03/06 08:16:11;;;;;;;212.30;83.47;;;6.30;99.90;;;;;;4973680;28;20049;-69
2024/03/06 08:18:38;;;;;;;202.05;81.88;;;6.40;99.90;;;;;;4956629;28;20069;-71
2024/03/06 08:21:06;;;;;;;192.40;75.22;;;6.40;99.90;;;;;;4965774;28;20073;-71
2024/03/06 08:23:33;;;;;;;195.23;77.95;;;6.40;99.90;;;;;;4970490;28;20102;-71
2024/03/06 08:26:03;;;;;;;205.00;80.47;;;6.40;99.90;;;;;;4990311;28;20055;-71
2024/03/06 08:28:30;;;;;;;219.10;79.20;;;6.30;99.90;;;;;;4970748;28;20599;-71
2024/03/06 08:30:58;;;;;;;208.48;76.30;;;6.40;99.90;;;;;;4966005;28;20057;-70
2024/03/06 08:33:25;;;;;;;213.07;77.53;;;6.40;99.90;;;;;;4966382;28;20043;-70
2024/03/06 08:35:53;;;;;;;220.57;79.95;;;6.40;99.90;;;;;;4968903;28;20625;-72
2024/03/06 08:38:20;;;;;;;219.63;81.47;;;6.40;99.90;;;;;;4968088;28;20058;-71
2024/03/06 08:40:48;;;;;;;205.95;78.22;;;6.40;99.90;;;;;;4969520;28;20923;-71
2024/03/06 08:43:16;;;;;;;218.80;79.18;;;6.50;99.90;;;;;;4971526;28;20046;-71
2024/03/06 08:45:43;;;;;;;202.27;78.70;;;6.50;99.90;;;;;;4972177;28;20884;-71
2024/03/06 08:48:11;;;;;;;200.40;74.30;;;6.50;99.90;;;;;;4976399;28;20038;-71
2024/03/06 08:50:39;;;;;;;218.00;81.13;;;6.50;99.90;;;;;;4968883;28;20050;-71
2024/03/06 08:53:06;;;;;;;223.32;82.00;;;6.50;99.90;;;;;;4969303;28;20058;-71
2024/03/06 08:55:34;;;;;;;214.90;79.63;;;6.50;99.90;;;;;;4967911;28;20891;-72
2024/03/06 08:58:01;;;;;;;196.45;75.78;;;6.50;99.90;;;;;;4952718;28;20717;-71
2024/03/06 09:00:29;;;;;;;199.35;75.78;;;6.50;99.90;;;;;;4954600;28;20050;-69
2024/03/06 09:02:55;;;;;;;199.55;80.35;;;6.50;99.90;;;;;;4968047;28;20121;-70
2024/03/06 09:05:23;;;;;;;222.02;81.28;;;6.50;99.90;;;;;;4964741;28;20097;-71
2024/03/06 09:07:50;;;;;;;198.10;78.90;;;6.60;99.90;;;;;;4970927;28;20042;-72
2024/03/06 09:10:18;;;;;;;207.52;83.00;;;6.60;99.90;;;;;;4962009;28;20157;-71
2024/03/06 09:12:46;;;;;;;176.50;71.18;;;6.60;99.90;;;;;;4966100;28;20148;-71
2024/03/06 09:15:15;;;;;;;175.68;72.47;;;6.70;99.90;;;;;;4970539;28;20050;-72
2024/03/06 09:17:42;;;;;;;174.93;74.40;;;6.70;99.90;;;;;;4970927;28;20045;-71
2024/03/06 09:20:10;;;;;;;182.75;76.47;;;6.70;99.90;;;;;;4970030;28;20136;-71
2024/03/06 09:22:40;;;;;;;172.50;72.07;;;6.70;99.90;;;;;;4953877;28;20046;-70
2024/03/06 09:25:07;;;;;;;179.98;75.05;;;6.90;99.90;;;;;;4967716;28;20086;-70
2024/03/06 09:27:35;;;;;;;165.48;73.13;;;6.90;99.90;;;;;;4961045;28;20603;-72
2024/03/06 09:30:03;;;;;;;164.38;72.82;;;7.10;99.90;;;;;;4965371;28;20042;-71
2024/03/06 09:32:30;;;;;;;156.98;68.38;;;7.20;99.90;;;;;;4964250;28;20070;-69
2024/03/06 09:34:58;;;;;;;144.88;66.32;;;7.00;99.90;;;;;;4965441;28;20046;-71
2024/03/06 09:37:27;;;;;;;145.07;65.82;;;7.00;99.90;;;;;;4955321;28;20118;-71
2024/03/06 09:39:56;;;;;;;147.00;68.18;;;7.20;99.90;;;;;;4969602;28;20049;-70
2024/03/06 09:42:23;;;;;;;143.65;65.60;;;7.30;99.90;;;;;;4965850;28;20599;-70
2024/03/06 09:44:51;;;;;;;154.90;72.28;;;7.50;99.90;;;;;;4947678;28;21617;-71
2024/03/06 09:47:25;;;;;;;150.07;70.88;;;7.50;99.90;;;;;;4944624;28;20094;-71
2024/03/06 09:49:55;;;;;;;142.93;69.47;;;7.40;99.90;;;;;;4951978;28;20236;-73
2024/03/06 09:52:24;;;;;;;140.40;65.80;;;7.50;99.90;;;;;;4947595;28;20050;-72
2024/03/06 09:54:54;;;;;;;139.20;68.88;;;7.50;99.90;;;;;;4947639;28;20055;-72
2024/03/06 09:57:21;;;;;;;132.25;66.25;;;7.70;99.90;;;;;;4948368;28;20058;-72
2024/03/06 09:59:49;;;;;;;136.13;68.53;;;7.80;99.90;;;;;;4948421;28;20069;-73
2024/03/06 10:02:37;;;;;;;132.50;67.95;;;8.00;99.90;;;;;;4940538;28;20051;-73
2024/03/06 10:05:05;;;;;;;129.68;66.85;;;8.30;99.90;;;;;;4938100;28;20062;-72
2024/03/06 10:07:33;;;;;;;122.03;65.47;;;8.30;99.90;;;;;;4942499;28;20145;-72
2024/03/06 10:10:00;;;;;;;106.50;61.28;;;8.50;99.90;;;;;;4946733;28;20057;-73
2024/03/06 10:12:29;;;;;;;106.85;60.50;;;8.60;99.90;;;;;;4941932;28;20043;-73
2024/03/06 10:14:57;;;;;;;97.88;56.97;;;8.70;99.90;;;;;;4946765;28;20408;-73
2024/03/06 10:17:26;;;;;;;93.22;61.42;;;8.70;99.90;;;;;;4968196;28;20051;-73
2024/03/06 10:19:58;;;;;;;104.32;62.13;;;8.80;99.90;;;;;;4970120;28;20265;-73
2024/03/06 10:22:25;;;;;;;104.35;60.97;;;8.90;99.90;;;;;;4962253;28;20046;-72
2024/03/06 10:24:56;;;;;;;99.85;62.65;;;8.90;99.90;;;;;;4969283;28;20838;-73
2024/03/06 10:27:24;;;;;;;106.22;62.50;;;8.60;99.90;;;;;;4966929;28;20588;-72
2024/03/06 10:30:06;;;;;;;103.45;61.95;;;8.60;99.90;;;;;;4982906;28;20843;-73
2024/03/06 10:32:33;;;;;;;93.80;60.50;;;8.80;99.90;;;;;;4964188;28;20114;-72
2024/03/06 10:35:01;;;;;;;103.63;61.33;;;8.90;99.90;;;;;;4967871;28;20126;-73
2024/03/06 10:37:29;;;;;;;100.20;64.65;;;8.70;99.90;;;;;;4972768;28;20050;-73
2024/03/06 10:40:01;;;;;;;95.75;61.88;;;8.70;99.90;;;;;;4964739;28;20050;-72
2024/03/06 10:42:29;;;;;;;108.13;66.55;;;8.80;99.90;;;;;;4967818;28;20614;-72
2024/03/06 10:44:59;;;;;;;114.10;65.15;;;8.90;99.90;;;;;;4968575;28;20054;-71
2024/03/06 10:47:28;;;;;;;121.43;64.07;;;8.60;99.90;;;;;;4960613;28;20054;-73
2024/03/06 10:50:04;;;;;;;114.57;64.43;;;8.40;99.90;;;;;;4954824;28;20074;-73
2024/03/06 10:52:34;;;;;;;107.07;59.55;;;8.10;99.90;;;;;;4962413;28;20631;-71
2024/03/06 10:55:03;;;;;;;122.75;61.47;;;7.90;99.90;;;;;;4967260;28;20042;-71
2024/03/06 10:57:31;;;;;;;120.95;60.92;;;7.80;99.90;;;;;;4960714;28;20587;-70
2024/03/06 11:00:00;;;;;;;116.03;60.70;;;7.60;99.90;;;;;;4967843;28;20877;-71
2024/03/06 11:02:32;;;;;;;114.97;59.92;;;7.70;99.90;;;;;;4972737;28;20051;-70
2024/03/06 11:05:00;;;;;;;122.03;61.75;;;7.90;99.90;;;;;;4964669;28;20162;-71
2024/03/06 11:07:29;;;;;;;115.75;58.70;;;8.00;99.90;;;;;;4976215;28;20050;-73
2024/03/06 11:09:59;;;;;;;122.18;60.45;;;7.80;99.90;;;;;;4968638;28;20400;-70
2024/03/06 11:12:34;;;;;;;118.32;60.15;;;7.80;99.90;;;;;;4962190;28;20531;-72
2024/03/06 11:15:16;;;;;;;114.90;57.17;;;7.80;99.90;;;;;;4975229;28;20074;-71
2024/03/06 11:17:44;;;;;;;115.75;59.15;;;7.90;99.90;;;;;;4972722;28;20079;-68
2024/03/06 11:20:17;;;;;;;110.32;57.97;;;8.00;99.90;;;;;;4957707;28;20044;-69
2024/03/06 11:23:02;;;;;;;107.68;59.78;;;8.00;99.90;;;;;;4964268;28;20050;-70
2024/03/06 11:25:50;;;;;;;96.03;54.47;;;8.30;99.90;;;;;;4949745;28;20046;-69
2024/03/06 11:28:28;;;;;;;95.32;55.38;;;8.40;99.90;;;;;;4969020;28;20070;-71
2024/03/06 11:31:06;;;;;;;90.53;52.75;;;8.20;99.90;;;;;;4967207;28;20574;-71
2024/03/06 11:33:46;;;;;;;89.78;51.75;;;8.30;99.90;;;;;;4964927;28;20055;-72
2024/03/06 11:36:28;;;;;;;91.30;52.10;;;8.10;99.90;;;;;;4962781;28;20039;-71
2024/03/06 11:39:00;;;;;;;94.40;53.38;;;8.00;99.90;;;;;;4960621;28;20529;-71
2024/03/06 11:41:30;;;;;;;84.47;51.67;;;8.20;99.90;;;;;;4968198;28;20143;-69
2024/03/06 11:44:00;;;;;;;92.28;54.35;;;8.30;99.90;;;;;;4984384;28;20055;-70
2024/03/06 11:47:01;;;;;;;87.30;51.78;;;8.20;99.90;;;;;;4965016;28;20141;-68
2024/03/06 11:49:31;;;;;;;90.82;52.15;;;8.20;99.90;;;;;;4943984;28;20047;-71
2024/03/06 11:52:13;;;;;;;91.38;51.10;;;8.20;99.90;;;;;;4959977;28;20545;-71
2024/03/06 11:54:41;;;;;;;85.50;49.22;;;8.30;99.90;;;;;;4968167;28;20054;-72
2024/03/06 11:57:10;;;;;;;84.10;49.65;;;8.40;99.90;;;;;;4976989;28;20714;-73
2024/03/06 11:59:40;;;;;;;91.05;55.00;;;8.40;99.90;;;;;;4969778;28;20531;-72
2024/03/06 12:02:07;;;;;;;86.50;52.08;;;8.50;99.90;;;;;;4968405;28;20053;-72
2024/03/06 12:04:37;;;;;;;84.78;55.20;;;8.30;99.90;;;;;;4948300;28;20053;-71
2024/03/06 12:07:06;;;;;;;82.63;51.55;;;8.50;99.90;;;;;;4966050;28;20571;-73
2024/03/06 12:09:35;;;;;;;84.55;54.13;;;8.50;99.90;;;;;;4953734;28;20510;-69
2024/03/06 12:12:09;;;;;;;91.85;54.30;;;8.40;99.90;;;;;;4960495;28;20035;-70
2024/03/06 12:14:38;;;;;;;99.82;58.60;;;8.30;99.90;;;;;;4973004;28;20042;-70
2024/03/06 12:17:11;;;;;;;93.65;57.22;;;8.60;99.90;;;;;;4969915;28;20041;-72
2024/03/06 12:19:38;;;;;;;87.22;55.28;;;8.70;99.90;;;;;;4974694;28;20054;-72
2024/03/06 12:22:06;;;;;;;82.05;52.25;;;8.50;99.90;;;;;;4966615;28;20073;-72
2024/03/06 12:24:34;;;;;;;80.15;51.03;;;8.10;99.90;;;;;;4974553;28;20062;-72
2024/03/06 12:27:04;;;;;;;84.30;54.15;;;8.20;99.90;;;;;;4946984;28;20042;-72
2024/03/06 12:29:32;;;;;;;81.63;53.67;;;8.30;99.90;;;;;;4977311;28;20065;-72
2024/03/06 12:32:00;;;;;;;87.47;55.88;;;8.50;99.90;;;;;;4965889;28;20046;-72
2024/03/06 12:34:30;;;;;;;95.05;57.75;;;8.60;99.90;;;;;;4965831;28;20042;-73
2024/03/06 12:37:11;;;;;;;89.75;60.75;;;8.70;99.90;;;;;;4965280;28;20108;-72
2024/03/06 12:39:39;;;;;;;102.53;61.20;;;8.70;99.90;;;;;;4979187;28;20081;-72